Time;durP1;ratioP1;P1;durP2;ratioP2;P2;SDS_P1;SDS_P2;PMS_P1;PMS_P2;Temp;Humidity;BMP_temperature;BMP_pressure;BME280_temperature;BME280_humidity;BME280_pressure;Samples;Min_cycle;Max_cycle;Signal;HPM_P1;HPM_P2
2022/02/08 00:01:12;;;;;;;16.20;3.13;;;;;;;4.44;70.10;102147.00;5049167;28;20036;-48
2022/02/08 00:03:37;;;;;;;19.38;3.35;;;;;;;4.55;69.63;102160.75;5052396;28;20039;-51
2022/02/08 00:06:17;;;;;;;21.02;3.35;;;;;;;4.55;69.30;102158.09;5050047;28;20371;-48
2022/02/08 00:08:43;;;;;;;11.63;2.67;;;;;;;4.50;69.85;102168.41;5054592;28;20051;-47
2022/02/08 00:11:09;;;;;;;15.93;3.08;;;;;;;4.50;69.95;102167.56;5051538;28;20032;-48
2022/02/08 00:13:35;;;;;;;16.52;2.83;;;;;;;4.40;70.69;102165.13;5052538;28;20095;-48
2022/02/08 00:16:00;;;;;;;18.58;3.45;;;;;;;4.32;71.20;102172.31;5050400;28;20155;-47
2022/02/08 00:18:26;;;;;;;16.92;3.88;;;;;;;4.32;71.11;102167.81;5052514;28;20073;-48
2022/02/08 00:20:51;;;;;;;24.15;3.13;;;;;;;4.36;71.08;102166.47;5045248;28;20133;-47
2022/02/08 00:23:17;;;;;;;20.00;3.55;;;;;;;4.43;70.97;102171.91;5049069;28;20030;-48
2022/02/08 00:25:43;;;;;;;13.30;2.83;;;;;;;4.44;70.92;102190.31;5047260;28;20044;-48
2022/02/08 00:28:09;;;;;;;14.65;2.28;;;;;;;4.46;70.14;102185.66;5049840;28;20020;-48
2022/02/08 00:30:35;;;;;;;16.52;3.22;;;;;;;4.50;70.38;102189.63;5050434;28;20036;-48
2022/02/08 00:33:00;;;;;;;17.00;3.67;;;;;;;4.38;71.33;102169.78;5049549;28;20048;-47
2022/02/08 00:35:26;;;;;;;16.40;4.35;;;;;;;4.39;71.13;102182.03;5051340;28;20020;-48
2022/02/08 00:37:51;;;;;;;12.45;3.50;;;;;;;4.38;70.78;102180.38;5051319;28;20302;-48
2022/02/08 00:40:19;;;;;;;14.52;3.67;;;;;;;4.39;70.68;102179.38;5049542;28;20048;-47
2022/02/08 00:42:44;;;;;;;11.55;2.42;;;;;;;4.38;70.98;102182.22;5053630;28;20028;-48
2022/02/08 00:45:23;;;;;;;17.45;3.05;;;;;;;4.32;71.07;102191.69;5051486;28;20047;-47
2022/02/08 00:47:56;;;;;;;21.08;3.15;;;;;;;4.36;70.73;102187.69;5049521;28;20067;-47
2022/02/08 00:50:21;;;;;;;9.50;3.05;;;;;;;4.36;70.73;102187.69;5052603;28;20028;-48
2022/02/08 00:52:47;;;;;;;18.25;3.03;;;;;;;4.38;70.82;102196.31;5048611;28;20021;-48
2022/02/08 00:55:13;;;;;;;15.57;2.83;;;;;;;4.37;70.97;102185.88;5051311;28;20549;-48
2022/02/08 00:57:39;;;;;;;19.20;2.55;;;;;;;4.27;71.24;102191.38;5049568;28;20821;-47
2022/02/08 01:00:07;;;;;;;12.45;3.60;;;;;;;4.28;71.15;102195.66;5046143;28;20742;-47
2022/02/08 01:02:33;;;;;;;18.70;4.53;;;;;;;4.22;71.87;102205.16;5055619;28;20032;-48
2022/02/08 01:05:02;;;;;;;16.77;3.13;;;;;;;4.28;71.68;102205.47;5049699;28;20028;-48
2022/02/08 01:07:28;;;;;;;12.25;2.72;;;;;;;4.31;71.38;102211.28;5051158;28;20035;-48
2022/02/08 01:09:57;;;;;;;16.88;3.28;;;;;;;4.31;71.15;102208.63;5051316;28;20041;-48
2022/02/08 01:12:24;;;;;;;12.05;2.65;;;;;;;4.28;71.70;102205.47;5057918;28;20169;-48
2022/02/08 01:14:52;;;;;;;16.70;2.75;;;;;;;4.32;71.40;102207.63;5046097;28;20032;-48
2022/02/08 01:17:21;;;;;;;17.50;4.20;;;;;;;4.26;72.35;102202.97;5048176;28;20027;-48
2022/02/08 01:19:55;;;;;;;18.77;3.17;;;;;;;4.30;71.86;102204.28;5049870;28;20432;-48
2022/02/08 01:22:21;;;;;;;17.25;3.20;;;;;;;4.32;71.96;102198.84;5052838;28;20024;-50
2022/02/08 01:24:48;;;;;;;13.88;2.72;;;;;;;4.30;72.35;102201.63;5047553;28;20021;-47
2022/02/08 01:27:16;;;;;;;16.27;2.78;;;;;;;4.34;71.81;102200.31;5049966;28;20033;-47
2022/02/08 01:29:54;;;;;;;16.58;2.95;;;;;;;4.33;72.35;102200.50;5050212;28;20070;-48
2022/02/08 01:43:27;;;;;;;13.55;2.47;;;;;;;4.25;74.11;102202.16;5048664;28;20047;-47
2022/02/08 01:48:16;;;;;;;11.40;2.72;;;;;;;4.28;73.90;102193.03;5046104;28;20095;-48
2022/02/08 01:50:42;;;;;;;18.13;3.30;;;;;;;4.24;74.63;102189.06;5051790;28;20020;-48
2022/02/08 01:53:09;;;;;;;23.35;3.90;;;;;;;4.25;74.09;102188.88;5047605;28;20505;-47
2022/02/08 01:55:35;;;;;;;14.00;3.38;;;;;;;4.26;74.11;102173.78;5048881;28;20028;-48
2022/02/08 01:58:02;;;;;;;19.17;3.15;;;;;;;4.25;74.18;102180.94;5065672;28;20028;-47
2022/02/08 02:00:29;;;;;;;15.02;3.08;;;;;;;4.26;74.00;102187.06;5046074;28;20021;-48
2022/02/08 02:02:55;;;;;;;15.63;3.05;;;;;;;4.24;74.36;102183.75;5050604;28;20029;-48
2022/02/08 02:05:21;;;;;;;13.45;3.20;;;;;;;4.23;74.31;102184.75;5048957;28;20519;-47
2022/02/08 02:07:48;;;;;;;24.92;3.60;;;;;;;4.28;73.56;102187.72;5048878;28;20071;-48
2022/02/08 02:10:16;;;;;;;17.35;3.08;;;;;;;4.27;73.90;102183.41;5050724;28;20036;-48
2022/02/08 02:12:52;;;;;;;13.75;3.53;;;;;;;4.27;73.73;102179.94;5048775;28;20016;-48
2022/02/08 02:15:18;;;;;;;15.50;3.00;;;;;;;4.32;73.39;102180.25;5048459;28;20460;-48
2022/02/08 02:17:44;;;;;;;15.32;3.08;;;;;;;4.30;73.74;102182.22;5048200;28;20096;-48
2022/02/08 02:20:10;;;;;;;15.75;3.58;;;;;;;4.30;73.60;102183.06;5049736;28;20047;-47
2022/02/08 02:22:35;;;;;;;15.15;3.08;;;;;;;4.29;73.85;102180.56;5056316;28;20063;-47
2022/02/08 02:25:01;;;;;;;18.98;4.05;;;;;;;4.28;73.95;102184.22;5052809;28;20056;-48
2022/02/08 02:27:26;;;;;;;19.48;2.85;;;;;;;4.29;73.98;102188.53;5053327;28;20044;-48
2022/02/08 02:29:52;;;;;;;15.30;3.53;;;;;;;4.20;74.90;102183.28;5050304;28;20234;-48
2022/02/08 02:32:17;;;;;;;14.52;2.70;;;;;;;4.20;74.78;102188.59;5052976;28;20024;-47
2022/02/08 02:34:48;;;;;;;20.50;3.28;;;;;;;4.21;74.81;102192.88;5053004;28;20029;-48
2022/02/08 02:37:13;;;;;;;14.27;2.60;;;;;;;4.25;74.33;102188.06;5054603;28;20024;-48
2022/02/08 02:39:39;;;;;;;17.63;3.50;;;;;;;4.23;74.91;102198.03;5053072;28;20020;-48
2022/02/08 02:42:13;;;;;;;15.68;2.92;;;;;;;4.23;74.74;102192.72;5057561;28;20132;-48
2022/02/08 02:44:40;;;;;;;13.63;3.30;;;;;;;4.27;74.33;102191.38;5054668;28;20031;-49
2022/02/08 02:47:06;;;;;;;18.98;3.00;;;;;;;4.27;74.52;102188.72;5052219;28;21504;-48
2022/02/08 02:49:31;;;;;;;11.13;2.50;;;;;;;4.27;74.23;102183.41;5051908;28;20047;-48
2022/02/08 02:51:57;;;;;;;13.70;3.05;;;;;;;4.25;74.26;102188.06;5052900;28;20032;-48
2022/02/08 02:54:23;;;;;;;11.05;3.42;;;;;;;4.27;73.91;102193.19;5051854;28;20031;-48
2022/02/08 02:56:49;;;;;;;15.25;3.03;;;;;;;4.27;74.30;102195.84;5050388;28;20037;-47
2022/02/08 02:59:18;;;;;;;14.35;3.60;;;;;;;4.29;73.92;102189.38;5049723;28;20024;-47
2022/02/08 03:20:30;;;;;;;16.85;2.63;;;;;;;4.28;73.82;102200.97;5055112;28;20464;-48
2022/02/08 03:22:55;;;;;;;11.88;2.33;;;;;;;4.28;74.15;102200.16;5052050;28;20111;-48
2022/02/08 03:25:21;;;;;;;12.43;2.55;;;;;;;4.28;74.02;102200.97;5050928;28;20478;-48
2022/02/08 03:27:47;;;;;;;9.38;2.20;;;;;;;4.30;74.14;102204.28;5049553;28;20041;-48
2022/02/08 03:30:12;;;;;;;9.77;2.50;;;;;;;4.30;74.20;102206.94;5050659;28;20399;-48
2022/02/08 03:32:38;;;;;;;18.13;3.03;;;;;;;4.28;73.98;102198.31;5051812;28;20028;-47
2022/02/08 03:35:05;;;;;;;10.13;2.30;;;;;;;4.25;74.41;102190.72;5048800;28;20108;-48
2022/02/08 03:37:32;;;;;;;10.18;2.30;;;;;;;4.25;74.28;102188.88;5051811;28;20312;-48
2022/02/08 03:40:05;;;;;;;11.52;1.90;;;;;;;4.24;74.55;102191.72;5050738;28;20490;-48
2022/02/08 03:42:56;;;;;;;15.57;3.25;;;;;;;4.22;74.49;102191.88;5051851;28;20390;-48
2022/02/08 03:45:22;;;;;;;12.25;2.33;;;;;;;4.20;74.29;102185.94;5053630;28;20501;-47
2022/02/08 03:47:47;;;;;;;13.68;2.40;;;;;;;4.19;74.66;102186.94;5052086;28;20501;-47
2022/02/08 03:50:13;;;;;;;10.10;2.72;;;;;;;4.19;74.49;102183.44;5048790;28;20037;-48
2022/02/08 03:52:38;;;;;;;8.63;2.40;;;;;;;4.21;74.37;102186.75;5048640;28;20025;-47
2022/02/08 03:55:05;;;;;;;14.07;3.15;;;;;;;4.21;74.29;102192.06;5047942;28;20130;-48
2022/02/08 03:57:30;;;;;;;11.90;2.20;;;;;;;4.21;74.78;102195.53;5050586;28;20478;-47
2022/02/08 03:59:56;;;;;;;15.70;2.63;;;;;;;4.23;74.41;102190.06;5049298;28;20032;-47
2022/02/08 04:04:53;;;;;;;10.85;2.45;;;;;;;4.27;74.53;102190.53;5051669;28;20043;-48
2022/02/08 04:07:26;;;;;;;9.40;2.72;;;;;;;4.26;74.32;102189.72;5050944;28;20033;-48
2022/02/08 04:09:59;;;;;;;10.25;2.42;;;;;;;4.25;74.61;102183.56;5048983;28;20268;-47
2022/02/08 04:13:08;;;;;;;15.48;2.80;;;;;;;4.25;74.49;102185.41;5050502;28;20035;-48
2022/02/08 04:41:35;;;;;;;13.88;2.97;;;;;;;4.28;74.53;102161.19;5048876;28;20113;-47
2022/02/08 04:44:24;;;;;;;10.43;2.95;;;;;;;4.28;74.43;102155.88;5048141;28;21865;-47
2022/02/08 04:47:04;;;;;;;9.23;2.60;;;;;;;4.29;74.35;102144.25;5048509;28;20034;-47
2022/02/08 04:49:30;;;;;;;10.15;2.70;;;;;;;4.29;74.49;102136.31;5055778;28;20090;-47
2022/02/08 04:52:00;;;;;;;9.40;3.00;;;;;;;4.27;74.37;102133.00;5047571;28;20032;-47
2022/02/08 04:57:04;;;;;;;11.23;2.35;;;;;;;4.25;74.74;102132.34;5052895;28;20116;-48
2022/02/08 05:45:22;;;;;;;12.77;2.95;;;;;;;4.12;74.84;102052.47;5040986;28;20032;-48
2022/02/08 05:47:51;;;;;;;8.52;3.08;;;;;;;4.11;74.92;102045.53;5047883;28;20067;-47
2022/02/08 05:55:23;;;;;;;11.30;2.60;;;;;;;4.13;74.99;102048.84;5057191;28;20412;-48
2022/02/08 05:57:51;;;;;;;12.68;2.88;;;;;;;4.12;75.33;102041.88;5060295;28;20008;-48
2022/02/08 06:00:17;;;;;;;10.77;2.35;;;;;;;4.09;75.51;102036.91;5053862;28;20429;-47
2022/02/08 06:02:42;;;;;;;14.80;2.92;;;;;;;4.10;75.44;102036.75;5053996;28;20083;-48
2022/02/08 06:05:13;;;;;;;9.60;2.80;;;;;;;4.10;75.30;102033.28;5055576;28;20057;-47
2022/02/08 06:07:38;;;;;;;18.20;3.13;;;;;;;4.08;75.69;102019.34;5053149;28;20557;-47
2022/02/08 06:10:05;;;;;;;11.23;3.92;;;;;;;4.12;75.17;102024.13;5055635;28;20032;-47
2022/02/08 06:12:30;;;;;;;12.18;3.38;;;;;;;4.17;75.33;102018.31;5051799;28;20283;-47
2022/02/08 06:15:02;;;;;;;8.93;2.65;;;;;;;4.18;75.23;102017.31;5054119;28;20035;-47
2022/02/08 06:17:28;;;;;;;12.85;3.67;;;;;;;4.15;75.54;102013.19;5053108;28;20371;-48
2022/02/08 06:19:56;;;;;;;7.28;2.55;;;;;;;4.14;75.58;102014.19;5054628;28;20039;-48
2022/02/08 06:22:22;;;;;;;10.15;2.42;;;;;;;4.17;75.35;102013.03;5061396;28;20024;-48
2022/02/08 06:24:48;;;;;;;6.93;2.20;;;;;;;4.18;75.34;102010.19;5055504;28;20042;-47
2022/02/08 06:27:14;;;;;;;7.93;2.60;;;;;;;4.18;75.45;102018.16;5053554;28;20107;-47
2022/02/08 06:29:41;;;;;;;8.93;2.30;;;;;;;4.20;75.20;102024.09;5051698;28;20168;-50
2022/02/08 06:32:07;;;;;;;7.40;2.65;;;;;;;4.23;75.02;102017.63;5053365;28;20133;-48
2022/02/08 06:34:33;;;;;;;9.20;2.70;;;;;;;4.20;75.21;102012.66;5050051;28;20676;-48
2022/02/08 06:37:05;;;;;;;7.03;2.33;;;;;;;4.22;75.19;102016.78;5053163;28;20036;-49
2022/02/08 06:39:35;;;;;;;12.43;3.13;;;;;;;4.20;75.45;102017.97;5051476;28;20024;-50
2022/02/08 06:42:01;;;;;;;11.07;3.47;;;;;;;4.20;75.58;102012.66;5050934;28;20506;-50
2022/02/08 06:44:26;;;;;;;9.00;2.83;;;;;;;4.21;75.47;102020.44;5052886;28;20077;-48
2022/02/08 06:46:52;;;;;;;21.15;4.20;;;;;;;4.19;75.98;101990.63;5049236;28;20017;-48
2022/02/08 06:49:18;;;;;;;11.45;3.17;;;;;;;4.21;75.83;102011.66;5057132;28;20466;-47
2022/02/08 06:51:43;;;;;;;11.98;3.60;;;;;;;4.18;75.94;102004.88;5055379;28;20327;-47
2022/02/08 06:54:09;;;;;;;7.78;3.08;;;;;;;4.20;76.22;102005.53;5054510;28;20482;-50
2022/02/08 06:56:35;;;;;;;15.52;3.97;;;;;;;4.22;76.13;101992.09;5052755;28;20106;-49
2022/02/08 06:59:08;;;;;;;10.05;3.30;;;;;;;4.24;76.51;101987.44;5052132;28;20432;-47
2022/02/08 07:01:35;;;;;;;13.23;3.88;;;;;;;4.25;76.61;101989.91;5052473;28;20035;-51
2022/02/08 07:04:06;;;;;;;10.10;3.33;;;;;;;4.26;76.80;101990.72;5052847;28;20119;-48
2022/02/08 07:06:32;;;;;;;10.73;3.55;;;;;;;4.26;76.83;101980.13;5053789;28;20032;-48
2022/02/08 07:08:57;;;;;;;10.80;4.00;;;;;;;4.28;76.71;101974.63;5055365;28;20033;-48
2022/02/08 07:11:25;;;;;;;13.63;4.20;;;;;;;4.27;77.21;101981.78;5053185;28;20040;-48
2022/02/08 07:13:52;;;;;;;12.40;3.75;;;;;;;4.27;77.22;101984.41;5047034;28;20115;-49
2022/02/08 07:16:18;;;;;;;10.82;4.10;;;;;;;4.29;77.33;101985.06;5051375;28;20056;-48
2022/02/08 07:18:44;;;;;;;13.25;3.65;;;;;;;4.33;76.96;101974.94;5048767;28;20115;-47
2022/02/08 07:21:11;;;;;;;13.75;4.07;;;;;;;4.36;76.91;101977.25;5057822;28;20024;-47
2022/02/08 07:23:37;;;;;;;10.07;4.10;;;;;;;4.36;77.29;101978.06;5054800;28;20474;-48
2022/02/08 07:26:04;;;;;;;7.95;3.42;;;;;;;4.36;77.49;101967.47;5050098;28;20740;-48
2022/02/08 07:28:30;;;;;;;12.38;3.58;;;;;;;4.34;77.48;101956.19;5050614;28;20580;-48
2022/02/08 07:31:02;;;;;;;10.73;3.55;;;;;;;4.34;77.72;101961.50;5052640;28;20379;-47
2022/02/08 07:33:28;;;;;;;11.18;3.83;;;;;;;4.36;77.71;101964.81;5049796;28;20032;-49
2022/02/08 07:36:06;;;;;;;13.23;4.30;;;;;;;4.37;77.95;101961.16;5055989;28;20043;-50
2022/02/08 07:38:36;;;;;;;9.93;4.32;;;;;;;4.35;78.29;101962.34;5050350;28;20543;-50
2022/02/08 07:43:32;;;;;;;11.13;4.90;;;;;;;4.37;78.15;101961.16;5054778;28;20085;-48
2022/02/08 07:45:58;;;;;;;11.13;4.95;;;;;;;4.37;78.37;101957.66;5054035;28;20150;-47
2022/02/08 07:48:24;;;;;;;13.00;5.43;;;;;;;4.38;78.49;101957.50;5052792;28;20059;-48
2022/02/08 07:50:51;;;;;;;14.63;5.57;;;;;;;4.42;78.18;101952.66;5054468;28;20025;-48
2022/02/08 07:53:19;;;;;;;12.35;5.78;;;;;;;4.39;78.94;101956.47;5050664;28;20025;-47
2022/02/08 07:55:45;;;;;;;16.98;5.82;;;;;;;4.44;78.54;101950.63;5053611;28;20306;-49
2022/02/08 07:58:11;;;;;;;17.48;5.57;;;;;;;4.47;78.37;101960.88;5050185;28;20020;-47
2022/02/08 08:00:36;;;;;;;17.63;6.43;;;;;;;4.47;78.70;101958.22;5052029;28;20024;-48
2022/02/08 08:03:06;;;;;;;16.77;5.97;;;;;;;4.45;78.56;101947.81;5048541;28;20544;-47
2022/02/08 08:05:32;;;;;;;15.05;5.70;;;;;;;4.48;78.79;101949.28;5050109;28;20025;-49
2022/02/08 08:07:58;;;;;;;12.73;6.20;;;;;;;4.49;78.99;101948.28;5054650;28;20055;-48
2022/02/08 08:10:29;;;;;;;15.27;6.05;;;;;;;4.49;78.83;101951.78;5049975;28;20035;-47
2022/02/08 08:12:55;;;;;;;14.00;6.15;;;;;;;4.49;79.09;101959.72;5057817;28;20048;-47
2022/02/08 08:15:38;;;;;;;21.27;6.40;;;;;;;4.51;79.15;101947.09;5049290;28;20029;-48
2022/02/08 08:18:19;;;;;;;13.10;5.57;;;;;;;4.52;79.33;101945.28;5066719;28;20127;-47
2022/02/08 08:20:44;;;;;;;15.00;6.38;;;;;;;4.52;79.39;101940.78;5054205;28;20025;-48
2022/02/08 08:23:10;;;;;;;16.67;6.57;;;;;;;4.57;78.92;101947.38;5048770;28;20035;-48
2022/02/08 08:25:35;;;;;;;18.50;5.95;;;;;;;4.52;79.65;101942.63;5049248;28;20028;-49
2022/02/08 08:28:01;;;;;;;22.15;6.00;;;;;;;4.55;80.02;101937.78;5049436;28;20051;-48
2022/02/08 08:30:27;;;;;;;17.00;6.45;;;;;;;4.59;79.70;101946.19;5049155;28;20031;-48
2022/02/08 08:32:52;;;;;;;14.50;5.82;;;;;;;4.62;79.59;101947.66;5049900;28;20394;-48
2022/02/08 08:35:23;;;;;;;18.38;7.53;;;;;;;4.65;79.01;101950.78;5047694;28;20035;-48
2022/02/08 08:37:51;;;;;;;20.00;6.53;;;;;;;4.62;79.92;101929.91;5049762;28;20124;-48
2022/02/08 08:40:23;;;;;;;9.48;5.93;;;;;;;4.68;79.43;101926.56;5048383;28;20036;-47
2022/02/08 08:43:04;;;;;;;14.98;7.55;;;;;;;4.69;79.69;101927.38;5053728;28;20188;-48
2022/02/08 08:53:47;;;;;;;17.67;6.23;;;;;;;4.80;80.52;101903.84;5040011;28;20036;-48
2022/02/08 08:56:12;;;;;;;15.00;6.15;;;;;;;4.85;80.03;101905.97;5052758;28;20279;-48
2022/02/08 08:58:43;;;;;;;15.80;7.65;;;;;;;4.90;79.64;101900.94;5048466;28;20039;-49
2022/02/08 09:01:11;;;;;;;14.48;6.13;;;;;;;4.94;79.88;101902.22;5053023;28;20167;-49
2022/02/08 09:03:37;;;;;;;12.75;6.35;;;;;;;4.94;80.10;101909.34;5047904;28;20036;-48
2022/02/08 09:06:03;;;;;;;16.55;6.90;;;;;;;4.97;79.86;101909.81;5050241;28;20441;-48
2022/02/08 09:08:32;;;;;;;13.05;6.35;;;;;;;4.97;80.28;101911.66;5047321;28;20032;-47
2022/02/08 09:11:07;;;;;;;15.63;6.18;;;;;;;5.00;80.13;101908.63;5052831;28;20119;-47
2022/02/08 09:13:48;;;;;;;;;;;;;;;4.93;80.76;101900.56;5050790;28;20106;-48
2022/02/08 09:16:33;;;;;;;12.80;6.30;;;;;;;4.99;80.92;101913.09;5046563;28;20389;-51
2022/02/08 09:29:20;;;;;;;13.18;5.63;;;;;;;5.15;80.53;101912.94;5050618;28;20186;-48
2022/02/08 09:31:47;;;;;;;12.88;5.72;;;;;;;5.18;80.88;101913.56;5050912;28;20087;-48
2022/02/08 09:34:13;;;;;;;13.07;6.40;;;;;;;5.22;80.32;101904.25;5046956;28;20031;-49
2022/02/08 09:36:38;;;;;;;11.25;5.45;;;;;;;5.24;80.72;101904.88;5049852;28;20285;-48
2022/02/08 09:39:04;;;;;;;11.52;5.63;;;;;;;5.28;80.21;101896.34;5047567;28;20027;-48
2022/02/08 09:41:33;;;;;;;13.18;6.22;;;;;;;5.30;80.38;101878.38;5050189;28;20032;-51
2022/02/08 09:44:03;;;;;;;16.50;6.75;;;;;;;5.33;80.59;101893.13;5049258;28;20130;-48
2022/02/08 09:46:28;;;;;;;11.48;6.75;;;;;;;5.35;80.60;101885.78;5047627;28;20305;-50
2022/02/08 09:48:57;;;;;;;11.93;6.22;;;;;;;5.34;80.79;101889.47;5050038;28;20037;-48
2022/02/08 09:51:24;;;;;;;11.57;6.65;;;;;;;5.34;81.34;101884.13;5052627;28;20036;-47
2022/02/08 09:53:56;;;;;;;14.75;6.53;;;;;;;5.36;81.31;101882.94;5051857;28;20028;-48
2022/02/08 09:56:23;;;;;;;11.80;6.90;;;;;;;5.38;81.06;101890.72;5051377;28;20427;-47
2022/02/08 09:58:52;;;;;;;12.10;6.65;;;;;;;5.40;80.92;101896.72;5048823;28;20071;-48
2022/02/08 10:01:21;;;;;;;16.67;7.45;;;;;;;5.42;81.55;101894.69;5048077;28;20482;-47
2022/02/08 10:03:50;;;;;;;13.40;6.88;;;;;;;5.45;80.90;101886.34;5046977;28;20040;-48
2022/02/08 10:06:16;;;;;;;18.10;8.70;;;;;;;5.43;82.17;101875.88;5047532;28;20218;-48
2022/02/08 10:08:41;;;;;;;13.07;7.28;;;;;;;5.45;82.18;101870.38;5047220;28;20135;-49
2022/02/08 10:11:23;;;;;;;14.18;8.00;;;;;;;5.43;82.30;101862.59;5046914;28;20095;-49
2022/02/08 10:22:08;;;;;;;15.97;8.63;;;;;;;5.56;82.16;101832.66;5034255;28;20052;-47
2022/02/08 10:24:37;;;;;;;15.77;7.70;;;;;;;5.59;82.14;101829.66;5047786;28;20036;-47
2022/02/08 10:27:18;;;;;;;13.70;7.45;;;;;;;5.57;83.12;101821.03;5049801;28;20025;-48
2022/02/08 10:40:09;;;;;;;10.27;6.85;;;;;;;5.69;84.09;101822.16;5050773;28;19956;-47
2022/02/08 10:42:36;;;;;;;13.65;6.65;;;;;;;5.72;83.45;101821.78;5050492;28;20025;-50
2022/02/08 10:45:15;;;;;;;12.00;6.45;;;;;;;5.77;82.91;101818.59;5053226;28;20029;-49
2022/02/08 10:47:41;;;;;;;14.23;8.27;;;;;;;5.78;84.09;101830.88;5070339;28;20024;-48
2022/02/08 10:50:09;;;;;;;12.18;6.35;;;;;;;5.81;84.18;101821.69;5059747;28;20031;-47
2022/02/08 10:52:37;;;;;;;14.77;5.93;;;;;;;5.86;84.32;101816.59;5053471;28;20086;-49
2022/02/08 10:58:00;;;;;;;12.20;6.07;;;;;;;5.93;84.25;101805.06;5051865;28;20167;-48
2022/02/08 11:00:51;;;;;;;11.90;6.00;;;;;;;5.91;85.79;101812.38;5051915;28;20399;-49
2022/02/08 11:03:28;;;;;;;15.70;6.85;;;;;;;6.00;84.73;101819.22;5053323;28;20046;-47
2022/02/08 11:06:09;;;;;;;11.55;6.22;;;;;;;6.05;84.46;101808.00;5054709;28;20425;-51
2022/02/08 11:25:19;;;;;;;12.43;6.78;;;;;;;6.25;88.89;101800.16;5054905;28;20067;-46
2022/02/08 11:27:52;;;;;;;12.13;6.20;;;;;;;6.35;86.96;101804.16;5053531;28;20180;-46
2022/02/08 11:30:49;;;;;;;10.82;6.30;;;;;;;6.39;86.83;101793.09;5052158;28;20078;-47
2022/02/08 11:47:30;;;;;;;8.77;5.17;;;;;;;6.79;89.09;101770.19;5038473;28;20033;-47
2022/02/08 12:07:29;;;;;;;6.68;4.40;;;;;;;7.22;87.89;101768.09;5053555;28;20405;-48
2022/02/08 12:10:05;;;;;;;9.00;5.03;;;;;;;7.25;88.08;101762.38;5049434;28;20056;-47
2022/02/08 12:56:39;;;;;;;10.27;5.20;;;;;;;7.71;88.21;101796.28;5043602;28;20431;-47
2022/02/08 14:09:16;;;;;;;7.07;4.53;;;;;;;8.30;89.68;101820.34;5044495;28;20487;-47
2022/02/08 14:14:40;;;;;;;8.35;4.40;;;;;;;8.28;89.94;101822.41;5048556;28;20173;-48
2022/02/08 14:19:37;;;;;;;7.93;4.40;;;;;;;8.28;90.63;101813.56;5055461;28;20025;-48
2022/02/08 14:22:32;;;;;;;10.52;4.55;;;;;;;8.30;90.40;101819.53;5048140;28;20108;-52
2022/02/08 14:30:28;;;;;;;6.55;3.55;;;;;;;8.27;91.68;101820.75;5051187;28;20036;-50
2022/02/08 14:33:10;;;;;;;9.60;4.57;;;;;;;8.23;92.40;101824.03;5051917;28;20120;-48
2022/02/08 14:49:40;;;;;;;7.80;4.13;;;;;;;8.38;92.50;101824.66;5048182;28;20410;-48
2022/02/08 15:00:21;;;;;;;5.72;3.33;;;;;;;8.43;92.91;101835.53;5053221;28;20036;-48
2022/02/08 15:08:24;;;;;;;6.45;3.15;;;;;;;8.54;91.78;101826.09;5048386;28;20132;-48
2022/02/08 15:10:53;;;;;;;6.03;3.38;;;;;;;8.53;92.00;101824.44;5048260;28;20028;-47
2022/02/08 15:13:23;;;;;;;4.93;3.00;;;;;;;8.57;90.98;101814.97;5050755;28;20082;-48
2022/02/08 15:18:14;;;;;;;3.35;2.38;;;;;;;8.56;91.83;101829.38;5047064;28;20029;-48
2022/02/08 15:20:40;;;;;;;2.80;2.45;;;;;;;8.55;92.68;101836.56;5046123;28;20478;-47
2022/02/08 15:33:11;;;;;;;2.92;1.92;;;;;;;8.61;92.86;101854.41;5045638;28;20112;-50
2022/02/08 15:35:37;;;;;;;3.05;2.17;;;;;;;8.58;93.66;101857.50;5051518;28;20043;-50
2022/02/08 15:44:49;;;;;;;1.85;1.40;;;;;;;8.60;94.39;101863.47;5048289;28;20042;-47
2022/02/08 16:08:41;;;;;;;1.27;0.70;;;;;;;8.51;96.13;101902.13;5045581;28;19928;-47
2022/02/08 16:11:59;;;;;;;2.38;1.10;;;;;;;8.54;95.89;101901.69;5058272;28;20037;-49
2022/02/08 16:14:05;;;;;;;1.02;0.82;;;;;;;8.53;96.09;101905.41;5043537;28;20049;-47
2022/02/08 16:19:25;;;;;;;0.80;0.80;;;;;;;8.57;95.32;101895.94;5045934;28;20082;-47
2022/02/08 16:32:07;;;;;;;0.82;0.70;;;;;;;8.59;96.23;101917.91;5049004;28;20478;-47
2022/02/08 16:53:29;;;;;;;7.47;4.22;;;;;;;8.62;95.78;101959.47;5048660;28;20083;-81
2022/02/08 17:01:10;;;;;;;1.17;0.90;;;;;;;8.59;96.01;101952.66;5047494;28;20042;-77
2022/02/08 17:03:41;;;;;;;1.50;0.98;;;;;;;8.60;96.04;101953.47;6100797;22;20011;-76
2022/02/08 17:06:06;;;;;;;0.90;0.63;;;;;;;8.59;96.46;101957.19;5055970;28;20682;-76
2022/02/08 17:08:32;;;;;;;0.50;0.50;;;;;;;8.61;95.49;101955.94;5056775;28;20025;-76
2022/02/08 17:10:59;;;;;;;0.68;0.65;;;;;;;8.64;95.01;101966.25;5052958;28;20055;-76
2022/02/08 17:46:50;;;;;;;1.20;1.00;;;;;;;8.66;95.27;102012.28;5040965;28;20847;-82
2022/02/08 17:49:16;;;;;;;1.45;1.10;;;;;;;8.63;95.82;102023.38;5052636;28;20033;-82
2022/02/08 17:51:41;;;;;;;1.30;1.20;;;;;;;8.59;95.92;102024.78;5056218;28;20040;-82
2022/02/08 17:54:07;;;;;;;1.42;1.20;;;;;;;8.60;96.37;102028.28;5051231;28;20028;-81
2022/02/08 17:56:32;;;;;;;1.55;1.10;;;;;;;8.62;95.43;102032.41;5057345;28;20023;-81
2022/02/08 17:58:58;;;;;;;0.93;0.90;;;;;;;8.61;95.68;102035.25;5064472;28;20027;-81
2022/02/08 18:01:24;;;;;;;1.85;0.82;;;;;;;8.53;95.99;102041.63;5060754;28;20586;-81
2022/02/08 18:03:50;;;;;;;0.95;0.85;;;;;;;8.55;96.17;102030.75;5056240;28;20037;-82
2022/02/08 18:06:16;;;;;;;1.20;1.00;;;;;;;8.54;95.70;102048.63;5053970;28;21475;-82
2022/02/08 18:08:42;;;;;;;1.48;0.80;;;;;;;8.47;95.65;102051.28;5049370;28;20062;-81
2022/02/08 18:11:08;;;;;;;0.95;0.73;;;;;;;8.39;95.65;102051.47;5053719;28;20393;-81
2022/02/08 18:13:39;;;;;;;1.40;0.80;;;;;;;8.33;95.84;102052.25;5053939;28;20229;-81
2022/02/08 18:16:05;;;;;;;1.30;0.70;;;;;;;8.33;95.38;102054.09;5045907;28;20064;-81
2022/02/08 18:18:36;;;;;;;2.20;0.88;;;;;;;8.30;95.15;102058.00;5049406;28;20064;-81
2022/02/08 18:21:25;;;;;;;2.35;0.80;;;;;;;8.14;94.84;102059.16;5054929;28;20028;-80
2022/02/08 18:57:22;;;;;;;2.20;0.95;;;;;;;8.03;93.48;102075.75;5060147;28;20121;-84
2022/02/08 19:07:55;;;;;;;2.65;1.05;;;;;;;8.09;92.07;102077.63;5044746;28;20097;-85
2022/02/08 19:22:47;;;;;;;0.93;0.52;;;;;;;8.10;92.29;102105.97;5012222;28;20264;-84
2022/02/08 19:25:47;;;;;;;1.63;0.70;;;;;;;8.05;92.23;102107.56;5051382;28;20482;-84
2022/02/08 19:28:37;;;;;;;0.80;0.80;;;;;;;8.09;91.92;102107.00;5050304;28;20032;-85
2022/02/08 19:31:03;;;;;;;2.85;0.80;;;;;;;8.15;91.89;102113.38;5049945;28;20086;-84
2022/02/08 19:33:28;;;;;;;0.75;0.68;;;;;;;8.17;91.68;102116.66;5045091;28;20020;-84
2022/02/08 19:35:58;;;;;;;1.83;0.90;;;;;;;8.07;92.22;102119.69;5049601;28;20028;-84
2022/02/08 19:38:26;;;;;;;1.95;0.95;;;;;;;8.10;92.23;102122.00;5053202;28;20176;-85
2022/02/08 19:40:53;;;;;;;2.25;0.80;;;;;;;8.11;92.11;102120.97;5046513;28;20037;-84
2022/02/08 19:43:18;;;;;;;1.73;1.10;;;;;;;8.01;92.45;102131.16;5048512;28;20479;-84
2022/02/08 19:45:45;;;;;;;1.75;1.00;;;;;;;8.07;91.94;102130.38;5051138;28;20025;-85
2022/02/08 19:48:12;;;;;;;1.60;1.45;;;;;;;8.05;92.05;102124.41;5045763;28;20024;-84
2022/02/08 19:50:40;;;;;;;1.60;0.73;;;;;;;8.05;92.55;102137.75;5039689;28;20032;-84
2022/02/08 19:53:10;;;;;;;1.67;0.88;;;;;;;8.09;92.10;102130.19;5047000;28;20037;-84
2022/02/08 19:58:19;;;;;;;1.95;0.82;;;;;;;8.13;91.83;102118.91;5047581;28;20032;-85
2022/02/08 20:00:55;;;;;;;1.13;0.98;;;;;;;8.11;92.00;102107.63;5048926;28;20091;-84
2022/02/08 20:03:21;;;;;;;1.45;0.80;;;;;;;8.06;92.18;102111.88;5047929;28;20111;-84
2022/02/08 20:05:49;;;;;;;1.23;0.70;;;;;;;8.07;92.40;102103.69;5049316;28;20048;-84
2022/02/08 20:08:14;;;;;;;1.25;0.85;;;;;;;8.15;91.91;102114.19;5060558;28;20029;-83
2022/02/08 20:10:40;;;;;;;1.83;0.60;;;;;;;8.08;92.15;102116.03;5055683;28;20021;-84
2022/02/08 20:13:05;;;;;;;1.35;0.70;;;;;;;8.10;92.58;102100.63;5054120;28;20024;-84
2022/02/08 20:15:31;;;;;;;1.38;0.80;;;;;;;8.10;92.64;102116.66;5052672;28;20104;-83
2022/02/08 20:17:59;;;;;;;1.25;0.80;;;;;;;8.14;92.51;102120.56;5051469;28;20105;-83
2022/02/08 20:20:26;;;;;;;2.58;0.85;;;;;;;8.18;92.02;102119.13;5046131;28;20498;-83
2022/02/08 20:23:00;;;;;;;0.70;0.70;;;;;;;8.16;92.56;102123.03;5044304;28;20164;-83